createdAt,value
2022-10-11T00:02:05.308Z,88.67
2022-10-11T00:04:31.904Z,88.91
2022-10-11T00:06:58.536Z,89.30
2022-10-11T00:09:25.160Z,89.30
2022-10-11T00:11:55.737Z,88.74
2022-10-11T00:14:23.981Z,88.94
2022-10-11T00:16:50.628Z,88.38
2022-10-11T00:19:17.655Z,89.01
2022-10-11T00:21:44.403Z,88.85
2022-10-11T00:24:12.157Z,88.72
2022-10-11T00:26:41.180Z,89.24
2022-10-11T00:29:12.557Z,89.52
2022-10-11T00:31:39.858Z,88.79
2022-10-11T00:34:06.772Z,88.67
2022-10-11T00:36:33.487Z,89.40
2022-10-11T00:39:00.062Z,89.02
2022-10-11T00:41:26.677Z,89.76
2022-10-11T00:44:13.011Z,90.03
2022-10-11T00:46:42.589Z,89.52
2022-10-11T00:49:19.684Z,89.50
2022-10-11T00:51:52.454Z,88.88
2022-10-11T00:54:23.617Z,89.28
2022-10-11T00:56:55.824Z,88.54
2022-10-11T00:59:26.512Z,89.17
2022-10-11T01:01:53.428Z,89.05
2022-10-11T01:04:20.869Z,89.23
2022-10-11T01:06:49.461Z,88.81
2022-10-11T01:09:17.642Z,88.97
2022-10-11T01:11:45.082Z,89.02
2022-10-11T01:14:23.839Z,89.44
2022-10-11T01:17:22.629Z,89.59
2022-10-11T01:19:55.292Z,90.77
2022-10-11T01:22:46.482Z,92.19
2022-10-11T01:25:42.329Z,93.20
2022-10-11T01:28:21.260Z,93.59
2022-10-11T01:30:49.010Z,93.56
2022-10-11T01:33:20.006Z,93.96
2022-10-11T01:35:52.662Z,93.45
2022-10-11T01:38:38.001Z,94.32
2022-10-11T01:41:10.191Z,93.05
2022-10-11T01:43:39.188Z,92.65
2022-10-11T01:46:07.850Z,93.82
2022-10-11T01:48:47.513Z,95.21
2022-10-11T01:51:14.806Z,96.69
2022-10-11T01:53:52.635Z,95.92
2022-10-11T01:57:10.463Z,95.30
2022-10-11T01:59:58.689Z,95.14
2022-10-11T02:02:37.233Z,94.68
2022-10-11T02:05:32.169Z,94.59
2022-10-11T02:08:28.216Z,94.45
2022-10-11T02:11:04.546Z,93.84
2022-10-11T02:13:47.306Z,93.22
2022-10-11T02:16:20.574Z,92.97
2022-10-11T02:18:50.378Z,92.44
2022-10-11T02:21:20.843Z,92.77
2022-10-11T02:23:57.466Z,93.05
2022-10-11T02:26:27.638Z,92.97
2022-10-11T02:28:57.720Z,92.75
2022-10-11T02:31:25.906Z,92.08
2022-10-11T02:34:19.943Z,92.14
2022-10-11T02:36:51.518Z,92.42
2022-10-11T02:39:25.001Z,92.66
2022-10-11T02:41:52.729Z,96.36
2022-10-11T02:44:26.861Z,95.62
2022-10-11T02:46:54.727Z,94.39
2022-10-11T02:49:22.170Z,97.88
2022-10-11T02:51:48.764Z,99.15
2022-10-11T02:54:15.426Z,98.43
2022-10-11T02:56:42.026Z,98.25
2022-10-11T02:59:08.689Z,97.84
2022-10-11T03:01:35.273Z,98.60
2022-10-11T03:04:01.950Z,99.78
2022-10-11T03:06:28.582Z,99.83
2022-10-11T03:08:55.162Z,99.12
2022-10-11T03:11:21.784Z,98.58
2022-10-11T03:13:48.368Z,96.21
2022-10-11T03:16:15.168Z,95.49
2022-10-11T03:18:42.049Z,95.71
2022-10-11T03:21:08.905Z,94.05
2022-10-11T03:23:35.708Z,94.26
2022-10-11T03:26:02.752Z,94.30
2022-10-11T03:28:29.954Z,93.09
2022-10-11T03:30:56.529Z,93.38
2022-10-11T03:33:23.224Z,93.45
2022-10-11T03:35:50.492Z,92.59
2022-10-11T03:38:20.825Z,93.40
2022-10-11T03:40:48.129Z,93.90
2022-10-11T03:43:14.867Z,93.90
2022-10-11T03:45:44.439Z,94.77
2022-10-11T03:48:12.088Z,92.95
2022-10-11T03:50:39.230Z,91.93
2022-10-11T03:53:06.996Z,92.49
2022-10-11T03:55:33.743Z,92.44
2022-10-11T03:58:00.465Z,92.49
2022-10-11T04:00:27.185Z,92.07
2022-10-11T04:02:53.867Z,92.39
2022-10-11T04:05:20.526Z,92.54
2022-10-11T04:07:47.361Z,92.26
2022-10-11T04:10:14.321Z,91.85
2022-10-11T04:12:41.063Z,90.92
2022-10-11T04:15:08.256Z,91.51
2022-10-11T04:17:34.816Z,91.69
2022-10-11T04:20:01.636Z,91.44
2022-10-11T04:22:28.227Z,91.43
2022-10-11T04:24:54.764Z,91.06
2022-10-11T04:27:21.709Z,90.83
2022-10-11T04:29:48.316Z,91.24
2022-10-11T04:32:15.016Z,91.51
2022-10-11T04:34:41.605Z,91.54
2022-10-11T04:37:08.205Z,91.31
2022-10-11T04:39:34.759Z,91.15
2022-10-11T04:42:01.332Z,91.31
2022-10-11T04:44:28.215Z,92.05
2022-10-11T04:46:54.801Z,91.32
2022-10-11T04:49:21.623Z,91.03
2022-10-11T04:51:48.412Z,91.40
2022-10-11T04:54:15.126Z,91.24
2022-10-11T04:56:41.758Z,91.13
2022-10-11T04:59:08.572Z,91.07
2022-10-11T05:01:35.460Z,91.45
2022-10-11T05:04:02.161Z,91.85
2022-10-11T05:06:28.748Z,92.65
2022-10-11T05:08:55.438Z,91.82
2022-10-11T05:11:22.231Z,91.00
2022-10-11T05:13:49.127Z,90.54
2022-10-11T05:16:17.900Z,89.25
2022-10-11T05:18:45.237Z,88.78
2022-10-11T05:21:18.654Z,88.76
2022-10-11T05:23:47.586Z,88.44
2022-10-11T05:26:14.786Z,88.18
2022-10-11T05:28:41.708Z,88.00
2022-10-11T05:31:08.526Z,88.08
2022-10-11T05:33:35.205Z,87.64
2022-10-11T05:36:02.276Z,88.32
2022-10-11T05:38:29.136Z,89.02
2022-10-11T05:41:00.311Z,88.58
2022-10-11T05:43:28.061Z,87.85
2022-10-11T05:45:54.942Z,87.40
2022-10-11T05:48:22.120Z,86.84
2022-10-11T05:50:48.766Z,85.36
2022-10-11T05:53:15.399Z,85.52
2022-10-11T05:55:43.427Z,84.73
2022-10-11T05:58:14.910Z,83.82
2022-10-11T06:00:41.561Z,83.86
2022-10-11T06:03:10.517Z,83.69
2022-10-11T06:05:37.590Z,82.41
2022-10-11T06:08:06.106Z,83.04
2022-10-11T06:10:33.035Z,81.92
2022-10-11T06:12:59.700Z,81.51
2022-10-11T06:15:26.540Z,80.85
2022-10-11T06:17:53.182Z,80.45
2022-10-11T06:20:19.897Z,79.39
2022-10-11T06:22:46.454Z,78.29
2022-10-11T06:25:13.101Z,78.19
2022-10-11T06:27:39.652Z,78.07
2022-10-11T06:30:07.453Z,78.66
2022-10-11T06:32:34.073Z,80.16
2022-10-11T06:35:00.821Z,78.55
2022-10-11T06:37:27.428Z,78.21
2022-10-11T06:39:54.032Z,76.86
2022-10-11T06:42:20.666Z,75.07
2022-10-11T06:44:47.214Z,73.99
2022-10-11T06:47:13.776Z,73.57
2022-10-11T06:49:40.383Z,72.61
2022-10-11T06:52:07.140Z,72.83
2022-10-11T06:54:33.753Z,72.27
2022-10-11T06:57:00.324Z,71.17
2022-10-11T06:59:26.910Z,74.05
2022-10-11T07:01:53.468Z,74.85
2022-10-11T07:04:20.042Z,75.80
2022-10-11T07:06:46.672Z,77.48
2022-10-11T07:09:13.336Z,76.36
2022-10-11T07:11:39.911Z,80.04
2022-10-11T07:14:07.992Z,81.13
2022-10-11T07:16:36.437Z,80.10
2022-10-11T07:19:05.946Z,76.89
2022-10-11T07:21:34.424Z,75.49
2022-10-11T07:24:01.749Z,76.93
2022-10-11T07:26:32.508Z,75.56
2022-10-11T07:29:03.913Z,73.44
2022-10-11T07:31:30.838Z,73.87
2022-10-11T07:33:57.392Z,72.56
2022-10-11T07:36:24.215Z,71.02
2022-10-11T07:38:51.208Z,70.42
2022-10-11T07:41:18.401Z,69.83
2022-10-11T07:43:47.043Z,68.97
2022-10-11T07:46:14.282Z,68.30
2022-10-11T07:48:41.293Z,69.93
2022-10-11T07:51:20.337Z,67.03
2022-10-11T07:53:49.642Z,66.03
2022-10-11T07:56:19.006Z,67.45
2022-10-11T07:58:50.549Z,67.48
2022-10-11T08:01:18.287Z,67.40
2022-10-11T08:03:44.880Z,66.38
2022-10-11T08:06:14.861Z,65.06
2022-10-11T08:08:41.508Z,64.97
2022-10-11T08:11:08.262Z,64.68
2022-10-11T08:13:35.459Z,64.27
2022-10-11T08:16:09.053Z,65.38
2022-10-11T08:18:35.737Z,64.10
2022-10-11T08:21:07.035Z,64.71
2022-10-11T08:23:33.729Z,64.58
2022-10-11T08:26:00.479Z,63.79
2022-10-11T08:28:27.130Z,62.39
2022-10-11T08:30:55.036Z,62.38
2022-10-11T08:33:23.772Z,62.21
2022-10-11T08:35:52.587Z,61.76
2022-10-11T08:38:20.255Z,62.21
2022-10-11T08:40:58.628Z,65.27
2022-10-11T08:43:49.695Z,65.03
2022-10-11T08:46:20.990Z,63.91
2022-10-11T08:48:51.956Z,63.27
2022-10-11T08:51:35.467Z,62.19
2022-10-11T08:54:20.584Z,61.54
2022-10-11T08:56:47.390Z,66.04
2022-10-11T08:59:13.910Z,69.68
2022-10-11T09:01:47.436Z,70.54
2022-10-11T09:04:16.221Z,70.27
2022-10-11T09:06:53.446Z,68.93
2022-10-11T09:09:28.684Z,69.74
2022-10-11T09:12:20.067Z,68.30
2022-10-11T09:15:01.849Z,66.70
2022-10-11T09:17:37.100Z,66.66
2022-10-11T09:20:22.190Z,69.88
2022-10-11T09:22:56.974Z,71.09
2022-10-11T09:25:26.085Z,71.84
2022-10-11T09:28:30.571Z,71.90
2022-10-11T09:30:59.205Z,69.81
2022-10-11T09:33:47.479Z,67.47
2022-10-11T09:36:32.623Z,67.14
2022-10-11T09:39:06.768Z,65.45
2022-10-11T09:41:41.751Z,64.56
2022-10-11T09:44:12.663Z,63.19
2022-10-11T09:46:42.389Z,62.48
2022-10-11T09:49:15.952Z,63.41
2022-10-11T09:51:49.815Z,63.22
2022-10-11T09:54:18.188Z,61.02
2022-10-11T09:56:46.293Z,59.56
2022-10-11T09:59:32.369Z,58.40
2022-10-11T10:02:14.497Z,57.42
2022-10-11T10:05:14.196Z,55.75
2022-10-11T10:08:05.256Z,55.15
2022-10-11T10:11:00.030Z,55.84
2022-10-11T10:13:49.989Z,58.23
2022-10-11T10:16:37.231Z,59.29
2022-10-11T10:19:18.196Z,59.23
2022-10-11T10:21:50.524Z,58.36
2022-10-11T10:24:34.041Z,58.58
2022-10-11T10:27:24.926Z,58.65
2022-10-11T10:30:14.867Z,58.37
2022-10-11T10:32:53.526Z,58.84
2022-10-11T10:36:08.273Z,57.98
2022-10-11T10:38:47.498Z,58.91
2022-10-11T10:41:18.108Z,58.04
2022-10-11T10:43:58.797Z,57.31
2022-10-11T10:46:53.291Z,56.84
2022-10-11T10:49:52.606Z,56.11
2022-10-11T10:52:39.829Z,56.41
2022-10-11T10:55:25.424Z,55.20
2022-10-11T10:57:57.931Z,55.86
2022-10-11T11:00:24.892Z,55.33
2022-10-11T11:03:02.494Z,54.74
2022-10-11T11:05:37.804Z,54.12
2022-10-11T11:08:17.349Z,53.77
2022-10-11T11:11:03.901Z,52.93
2022-10-11T11:13:41.871Z,52.84
2022-10-11T11:16:31.768Z,52.78
2022-10-11T11:19:06.318Z,55.26
2022-10-11T11:21:56.632Z,54.03
2022-10-11T11:25:00.323Z,54.39
2022-10-11T11:27:45.584Z,53.70
2022-10-11T11:30:18.559Z,52.04
2022-10-11T11:32:55.094Z,51.96
2022-10-11T11:35:21.748Z,53.38
2022-10-11T11:37:57.392Z,57.65
2022-10-11T11:40:43.623Z,56.41
2022-10-11T11:43:27.224Z,54.23
2022-10-11T11:45:59.411Z,53.35
2022-10-11T11:48:26.890Z,52.88
2022-10-11T11:51:13.357Z,51.89
2022-10-11T11:54:06.119Z,50.99
2022-10-11T11:57:02.571Z,56.77
2022-10-11T11:59:50.914Z,54.67
2022-10-11T12:02:29.716Z,54.21
2022-10-11T12:04:57.089Z,54.67
2022-10-11T12:07:27.255Z,55.82
2022-10-11T12:10:15.183Z,55.29
2022-10-11T12:12:42.152Z,55.57
2022-10-11T12:15:09.174Z,55.02
2022-10-11T12:17:57.748Z,56.47
2022-10-11T12:20:25.860Z,55.50
2022-10-11T12:22:58.461Z,54.87
2022-10-11T12:25:28.750Z,54.58
2022-10-11T12:27:58.433Z,54.10
2022-10-11T12:30:47.110Z,54.18
2022-10-11T12:33:32.825Z,54.05
2022-10-11T12:36:21.975Z,54.05
2022-10-11T12:39:20.514Z,55.47
2022-10-11T12:42:06.043Z,54.45
2022-10-11T12:44:32.781Z,53.09
2022-10-11T12:47:43.864Z,54.63
2022-10-11T12:50:22.846Z,53.71
2022-10-11T12:52:55.438Z,54.37
2022-10-11T12:55:30.798Z,53.58
2022-10-11T12:58:38.307Z,52.40
2022-10-11T13:01:05.230Z,53.12
2022-10-11T13:03:37.576Z,53.46
2022-10-11T13:06:20.267Z,53.49
2022-10-11T13:08:59.025Z,52.37
2022-10-11T13:11:31.028Z,52.53
2022-10-11T13:14:01.257Z,52.18
2022-10-11T13:16:42.088Z,52.31
2022-10-11T13:19:14.010Z,52.03
2022-10-11T13:21:40.751Z,52.30
2022-10-11T13:24:14.597Z,52.87
2022-10-11T13:26:43.193Z,53.83
2022-10-11T13:29:16.919Z,54.53
2022-10-11T13:31:46.769Z,56.80
2022-10-11T13:34:14.085Z,57.30
2022-10-11T13:36:41.031Z,57.18
2022-10-11T13:39:08.359Z,56.53
2022-10-11T13:41:35.327Z,57.29
2022-10-11T13:44:03.124Z,56.19
2022-10-11T13:46:31.455Z,55.69
2022-10-11T13:49:22.835Z,55.29
2022-10-11T13:52:01.631Z,54.78
2022-10-11T13:55:05.972Z,54.79
2022-10-11T13:57:45.085Z,54.51
2022-10-11T14:00:14.784Z,55.33
2022-10-11T14:02:54.740Z,54.66
2022-10-11T14:05:29.642Z,54.61
2022-10-11T14:07:58.626Z,55.38
2022-10-11T14:10:26.018Z,54.73
2022-10-11T14:13:02.514Z,54.79
2022-10-11T14:15:37.410Z,54.77
2022-10-11T14:18:42.948Z,54.79
2022-10-11T14:21:36.303Z,55.28
2022-10-11T14:24:06.478Z,56.27
2022-10-11T14:26:48.255Z,57.26
2022-10-11T14:29:23.616Z,58.20
2022-10-11T14:31:51.069Z,59.12
2022-10-11T14:34:22.536Z,59.55
2022-10-11T14:36:49.950Z,58.81
2022-10-11T14:39:22.496Z,59.85
2022-10-11T14:41:54.475Z,61.49
2022-10-11T14:44:22.040Z,62.39
2022-10-11T14:46:50.805Z,62.61
2022-10-11T14:52:21.085Z,62.38
2022-10-11T14:54:47.645Z,62.09
2022-10-11T14:57:14.195Z,61.86
2022-10-11T14:59:43.773Z,61.66
2022-10-11T15:02:21.082Z,61.37
2022-10-11T15:04:47.809Z,60.80
2022-10-11T15:07:15.894Z,61.42
2022-10-11T15:09:43.358Z,61.57
2022-10-11T15:12:10.003Z,61.73
2022-10-11T15:14:36.735Z,61.98
2022-10-11T15:17:03.452Z,61.54
2022-10-11T15:19:30.074Z,61.13
2022-10-11T15:21:56.784Z,61.54
2022-10-11T15:24:23.445Z,61.76
2022-10-11T15:26:50.620Z,61.88
2022-10-11T15:29:18.207Z,62.21
2022-10-11T15:31:49.561Z,62.31
2022-10-11T15:34:16.862Z,62.44
2022-10-11T15:36:44.203Z,62.68
2022-10-11T15:39:32.717Z,62.73
2022-10-11T15:41:59.897Z,62.58
2022-10-11T15:44:26.643Z,63.09
2022-10-11T15:46:53.606Z,63.33
2022-10-11T15:49:20.653Z,64.13
2022-10-11T15:51:47.273Z,63.84
2022-10-11T15:54:13.880Z,64.01
2022-10-11T15:56:40.534Z,64.68
2022-10-11T15:59:07.176Z,64.55
2022-10-11T16:01:33.788Z,64.71
2022-10-11T16:04:00.408Z,64.72
2022-10-11T16:06:27.871Z,64.95
2022-10-11T16:08:54.453Z,64.72
2022-10-11T16:11:21.015Z,64.56
2022-10-11T16:13:48.894Z,64.75
2022-10-11T16:16:15.477Z,64.82
2022-10-11T16:18:42.189Z,65.68
2022-10-11T16:21:11.171Z,66.16
2022-10-11T16:23:38.916Z,66.43
2022-10-11T16:26:09.063Z,66.69
2022-10-11T16:28:36.359Z,68.61
2022-10-11T16:31:08.542Z,69.99
2022-10-11T16:33:38.138Z,72.39
2022-10-11T16:36:26.968Z,73.62
2022-10-11T16:38:54.126Z,75.53
2022-10-11T16:41:20.740Z,74.65
2022-10-11T16:43:55.387Z,76.22
2022-10-11T16:46:22.760Z,76.84
2022-10-11T16:48:49.540Z,75.80
2022-10-11T16:51:16.349Z,76.24
2022-10-11T16:53:43.014Z,76.24
2022-10-11T16:56:18.013Z,76.42
2022-10-11T16:58:44.998Z,76.02
2022-10-11T17:01:11.678Z,75.59
2022-10-11T17:03:38.711Z,75.73
2022-10-11T17:06:06.231Z,76.18
2022-10-11T17:08:33.412Z,77.05
2022-10-11T17:11:00.444Z,76.45
2022-10-11T17:13:27.785Z,75.97
2022-10-11T17:15:58.899Z,76.04
2022-10-11T17:18:26.109Z,76.36
2022-10-11T17:21:04.573Z,76.32
2022-10-11T17:23:31.225Z,76.75
2022-10-11T17:25:57.892Z,78.49
2022-10-11T17:28:24.601Z,77.88
2022-10-11T17:30:56.793Z,77.35
2022-10-11T17:33:28.799Z,77.77
2022-10-11T17:35:59.502Z,77.56
2022-10-11T17:38:27.909Z,77.23
2022-10-11T17:41:01.764Z,77.62
2022-10-11T17:43:29.016Z,78.71
2022-10-11T17:46:00.178Z,78.65
2022-10-11T17:48:28.149Z,78.72
2022-10-11T17:50:55.122Z,79.30
2022-10-11T17:53:21.840Z,79.63
2022-10-11T17:55:50.626Z,79.81
2022-10-11T17:58:18.231Z,79.83
2022-10-11T18:00:45.508Z,80.03
2022-10-11T18:03:12.263Z,81.01
2022-10-11T18:05:40.140Z,80.80
2022-10-11T18:08:07.526Z,81.25
2022-10-11T18:10:37.840Z,81.46
2022-10-11T18:13:06.849Z,81.38
2022-10-11T18:15:34.057Z,81.14
2022-10-11T18:18:00.981Z,81.21
2022-10-11T18:20:27.651Z,81.40
2022-10-11T18:22:54.321Z,81.57
2022-10-11T18:25:20.918Z,81.14
2022-10-11T18:27:47.505Z,83.27
2022-10-11T18:30:14.667Z,85.78
2022-10-11T18:32:41.312Z,84.70
2022-10-11T18:35:08.318Z,84.18
2022-10-11T18:37:42.322Z,84.86
2022-10-11T18:40:09.263Z,86.87
2022-10-11T18:42:36.284Z,85.98
2022-10-11T18:45:11.174Z,85.48
2022-10-11T18:47:42.560Z,85.20
2022-10-11T18:50:10.034Z,84.22
2022-10-11T18:52:39.160Z,82.99
2022-10-11T18:55:08.421Z,82.84
2022-10-11T18:57:35.072Z,82.20
2022-10-11T19:00:11.747Z,81.72
2022-10-11T19:02:48.840Z,80.59
2022-10-11T19:05:15.639Z,80.50
2022-10-11T19:07:44.573Z,80.67
2022-10-11T19:10:11.234Z,80.40
2022-10-11T19:12:37.905Z,81.20
2022-10-11T19:15:04.982Z,81.82
2022-10-11T19:17:31.679Z,81.88
2022-10-11T19:19:59.583Z,82.34
2022-10-11T19:22:26.575Z,83.15
2022-10-11T19:24:53.182Z,82.55
2022-10-11T19:27:19.739Z,82.35
2022-10-11T19:29:46.382Z,81.81
2022-10-11T19:32:13.036Z,81.71
2022-10-11T19:34:39.613Z,81.20
2022-10-11T19:37:06.283Z,81.23
2022-10-11T19:39:32.905Z,80.81
2022-10-11T19:42:00.349Z,82.20
2022-10-11T19:44:27.005Z,81.67
2022-10-11T19:46:53.679Z,82.47
2022-10-11T19:49:25.343Z,83.67
2022-10-11T19:51:55.633Z,85.58
2022-10-11T19:54:22.964Z,87.72
2022-10-11T19:56:49.584Z,87.22
2022-10-11T19:59:16.886Z,85.80
2022-10-11T20:01:52.301Z,85.24
2022-10-11T20:04:51.101Z,85.01
2022-10-11T20:07:07.632Z,84.09
2022-10-11T20:09:34.294Z,83.71
2022-10-11T20:12:00.866Z,83.62
2022-10-11T20:14:27.492Z,82.60
2022-10-11T20:16:54.165Z,81.90
2022-10-11T20:19:26.184Z,81.20
2022-10-11T20:21:56.017Z,81.02
2022-10-11T20:24:22.600Z,80.84
2022-10-11T20:26:49.278Z,81.05
2022-10-11T20:29:15.846Z,80.71
2022-10-11T20:31:42.898Z,81.94
2022-10-11T20:34:10.379Z,83.47
2022-10-11T20:36:37.609Z,84.05
2022-10-11T20:39:05.880Z,83.27
2022-10-11T20:41:39.845Z,82.64
2022-10-11T20:44:08.843Z,82.55
2022-10-11T20:46:39.163Z,82.49
2022-10-11T20:49:09.329Z,84.31
2022-10-11T20:51:37.737Z,86.45
2022-10-11T20:54:05.132Z,87.06
2022-10-11T20:56:32.424Z,86.76
2022-10-11T20:58:59.306Z,86.18
2022-10-11T21:01:31.793Z,86.04
2022-10-11T21:04:00.067Z,87.87
2022-10-11T21:06:28.432Z,88.39
2022-10-11T21:08:56.495Z,88.83
2022-10-11T21:11:33.442Z,88.20
2022-10-11T21:14:03.009Z,88.09
2022-10-11T21:16:30.032Z,87.89
2022-10-11T21:18:58.464Z,89.87
2022-10-11T21:21:26.092Z,89.35
2022-10-11T21:23:57.522Z,88.84
2022-10-11T21:26:24.875Z,89.71
2022-10-11T21:28:51.565Z,88.41
2022-10-11T21:31:20.181Z,88.33
2022-10-11T21:33:46.995Z,90.42
2022-10-11T21:36:22.350Z,89.39
2022-10-11T21:38:50.540Z,89.71
2022-10-11T21:41:19.973Z,88.92
2022-10-11T21:43:47.753Z,89.75
2022-10-11T21:46:21.435Z,89.66
2022-10-11T21:48:50.019Z,89.09
2022-10-11T21:51:23.585Z,88.98
2022-10-11T21:53:50.486Z,87.79
2022-10-11T21:56:17.562Z,89.53
2022-10-11T21:58:47.786Z,90.39
2022-10-11T22:01:14.775Z,90.56
2022-10-11T22:03:41.538Z,90.63
2022-10-11T22:06:08.583Z,91.77
2022-10-11T22:08:35.257Z,91.49
2022-10-11T22:11:01.987Z,91.65
2022-10-11T22:13:31.176Z,90.19
2022-10-11T22:15:57.838Z,90.75
2022-10-11T22:18:25.108Z,91.05
2022-10-11T22:20:51.777Z,91.47
2022-10-11T22:23:19.220Z,92.68
2022-10-11T22:25:45.944Z,93.36
2022-10-11T22:28:13.083Z,94.29
2022-10-11T22:30:39.758Z,94.98
2022-10-11T22:33:06.652Z,95.40
2022-10-11T22:35:37.455Z,95.22
2022-10-11T22:38:06.116Z,95.69
2022-10-11T22:40:32.930Z,94.32
2022-10-11T22:42:59.456Z,95.25
2022-10-11T22:45:26.010Z,94.87
2022-10-11T22:47:52.577Z,95.68
2022-10-11T22:50:19.330Z,95.93
2022-10-11T22:52:45.910Z,96.38
2022-10-11T22:55:19.006Z,96.55
2022-10-11T22:57:46.667Z,96.31
2022-10-11T23:00:13.717Z,93.66
2022-10-11T23:02:40.330Z,92.16
2022-10-11T23:05:07.171Z,90.84
2022-10-11T23:07:33.917Z,90.31
2022-10-11T23:10:00.952Z,89.50
2022-10-11T23:12:27.497Z,89.14
2022-10-11T23:14:54.130Z,88.38
2022-10-11T23:17:20.791Z,87.46
2022-10-11T23:19:47.458Z,86.46
2022-10-11T23:22:14.417Z,86.63
2022-10-11T23:24:40.998Z,86.48
2022-10-11T23:27:08.076Z,86.61
2022-10-11T23:29:34.674Z,86.58
2022-10-11T23:32:01.327Z,86.23
2022-10-11T23:34:27.928Z,85.80
2022-10-11T23:36:54.502Z,85.68
2022-10-11T23:39:21.306Z,85.93
2022-10-11T23:41:47.892Z,85.59
2022-10-11T23:44:14.489Z,86.63
2022-10-11T23:46:41.078Z,86.57
2022-10-11T23:49:07.614Z,86.96
2022-10-11T23:51:34.195Z,86.96
2022-10-11T23:54:00.749Z,87.10
2022-10-11T23:56:27.387Z,88.24
2022-10-11T23:58:54.118Z,88.01
